createdAt,value
2022-10-21T00:01:10.107Z,51.00
2022-10-21T00:03:38.601Z,51.10
2022-10-21T00:06:07.834Z,51.00
2022-10-21T00:08:36.605Z,51.00
2022-10-21T00:11:06.616Z,51.10
2022-10-21T00:13:36.769Z,51.20
2022-10-21T00:16:09.112Z,51.20
2022-10-21T00:18:38.744Z,51.30
2022-10-21T00:21:08.986Z,51.30
2022-10-21T00:23:37.331Z,51.50
2022-10-21T00:26:06.002Z,51.50
2022-10-21T00:28:34.305Z,51.60
2022-10-21T00:31:02.634Z,51.30
2022-10-21T00:33:32.258Z,51.40
2022-10-21T00:36:02.823Z,51.40
2022-10-21T00:38:31.580Z,51.60
2022-10-21T00:41:00.177Z,51.70
2022-10-21T00:43:29.642Z,51.70
2022-10-21T00:46:00.879Z,51.60
2022-10-21T00:48:35.906Z,51.90
2022-10-21T00:51:07.596Z,51.80
2022-10-21T00:53:38.088Z,51.80
2022-10-21T00:56:15.497Z,51.80
2022-10-21T00:58:46.629Z,51.80
2022-10-21T01:01:18.056Z,52.00
2022-10-21T01:03:50.753Z,52.10
2022-10-21T01:06:21.771Z,52.10
2022-10-21T01:08:50.670Z,52.10
2022-10-21T01:11:22.744Z,52.80
2022-10-21T01:14:09.511Z,52.30
2022-10-21T01:16:48.257Z,52.30
2022-10-21T01:19:38.803Z,52.30
2022-10-21T01:22:17.163Z,52.30
2022-10-21T01:25:00.668Z,52.30
2022-10-21T01:27:40.779Z,52.40
2022-10-21T01:30:15.502Z,52.50
2022-10-21T01:35:47.295Z,52.50
2022-10-21T01:38:23.474Z,52.60
2022-10-21T01:40:57.650Z,52.70
2022-10-21T01:43:36.660Z,52.70
2022-10-21T01:46:09.100Z,52.90
2022-10-21T01:48:43.143Z,53.00
2022-10-21T01:51:12.817Z,53.00
2022-10-21T01:53:44.805Z,53.10
2022-10-21T01:56:14.291Z,53.20
2022-10-21T01:58:45.481Z,53.30
2022-10-21T02:01:15.546Z,53.30
2022-10-21T02:03:49.214Z,53.40
2022-10-21T02:06:18.202Z,53.50
2022-10-21T02:08:46.715Z,53.50
2022-10-21T02:11:18.216Z,53.50
2022-10-21T02:13:53.775Z,53.80
2022-10-21T02:16:26.372Z,53.70
2022-10-21T02:18:56.348Z,54.40
2022-10-21T02:21:28.237Z,53.80
2022-10-21T02:24:00.318Z,53.90
2022-10-21T02:26:29.863Z,54.30
2022-10-21T02:29:00.028Z,54.30
2022-10-21T02:31:40.701Z,54.90
2022-10-21T02:34:21.532Z,54.30
2022-10-21T02:36:57.336Z,54.30
2022-10-21T02:39:29.497Z,54.40
2022-10-21T02:41:59.336Z,54.40
2022-10-21T02:44:27.726Z,54.40
2022-10-21T02:46:55.991Z,54.50
2022-10-21T02:49:25.623Z,54.50
2022-10-21T02:51:54.548Z,54.70
2022-10-21T02:54:23.012Z,54.60
2022-10-21T02:56:51.215Z,54.60
2022-10-21T02:59:19.491Z,54.80
2022-10-21T03:01:53.883Z,54.90
2022-10-21T03:04:22.257Z,55.00
2022-10-21T03:06:51.978Z,55.20
2022-10-21T03:09:20.216Z,55.30
2022-10-21T03:11:48.431Z,55.40
2022-10-21T03:14:16.704Z,55.50
2022-10-21T03:16:44.919Z,55.60
2022-10-21T03:19:13.270Z,55.60
2022-10-21T03:21:41.547Z,55.70
2022-10-21T03:24:15.558Z,55.70
2022-10-21T03:26:56.002Z,55.90
2022-10-21T03:29:24.552Z,55.90
2022-10-21T03:31:52.836Z,55.90
2022-10-21T03:34:21.076Z,56.10
2022-10-21T03:36:49.437Z,56.10
2022-10-21T03:39:19.040Z,56.30
2022-10-21T03:41:47.320Z,56.30
2022-10-21T03:44:15.562Z,56.30
2022-10-21T03:46:43.841Z,56.80
2022-10-21T03:49:21.172Z,57.00
2022-10-21T03:51:50.424Z,57.00
2022-10-21T03:54:20.454Z,56.80
2022-10-21T03:56:48.713Z,56.80
2022-10-21T03:59:17.003Z,56.90
2022-10-21T04:01:45.309Z,56.70
2022-10-21T04:04:13.600Z,56.70
2022-10-21T04:06:41.837Z,56.80
2022-10-21T04:09:10.943Z,56.80
2022-10-21T04:11:42.279Z,56.90
2022-10-21T04:14:13.097Z,57.00
2022-10-21T04:16:43.752Z,56.90
2022-10-21T04:19:18.112Z,57.20
2022-10-21T04:21:47.065Z,57.00
2022-10-21T04:24:15.681Z,57.20
2022-10-21T04:26:45.681Z,57.20
2022-10-21T04:29:13.998Z,57.20
2022-10-21T04:31:42.353Z,57.30
2022-10-21T04:34:10.641Z,57.30
2022-10-21T04:36:38.900Z,57.40
2022-10-21T04:39:07.266Z,57.40
2022-10-21T04:41:35.558Z,57.40
2022-10-21T04:44:06.404Z,57.30
2022-10-21T04:46:34.603Z,57.30
2022-10-21T04:49:02.868Z,57.50
2022-10-21T04:54:00.335Z,57.40
2022-10-21T04:56:28.711Z,57.30
2022-10-21T04:58:57.077Z,57.30
2022-10-21T05:01:26.746Z,57.30
2022-10-21T05:03:54.999Z,57.40
2022-10-21T05:06:23.352Z,57.30
2022-10-21T05:08:51.730Z,57.30
2022-10-21T05:11:20.009Z,57.40
2022-10-21T05:13:48.250Z,57.30
2022-10-21T05:16:16.472Z,57.30
2022-10-21T05:18:46.113Z,57.40
2022-10-21T05:21:14.352Z,57.60
2022-10-21T05:23:43.137Z,57.60
2022-10-21T05:26:11.378Z,57.40
2022-10-21T05:28:39.586Z,57.60
2022-10-21T05:31:07.924Z,57.70
2022-10-21T05:33:36.372Z,57.70
2022-10-21T05:36:08.698Z,57.60
2022-10-21T05:38:37.262Z,57.60
2022-10-21T05:41:05.654Z,57.70
2022-10-21T05:43:33.956Z,57.80
2022-10-21T05:46:02.221Z,57.90
2022-10-21T05:48:30.896Z,57.90
2022-10-21T05:50:59.097Z,57.80
2022-10-21T05:53:28.789Z,57.80
2022-10-21T05:55:58.015Z,57.70
2022-10-21T05:58:27.551Z,57.70
2022-10-21T06:00:56.494Z,57.80
2022-10-21T06:03:25.519Z,57.80
2022-10-21T06:05:53.829Z,57.50
2022-10-21T06:08:22.034Z,57.40
2022-10-21T06:10:51.736Z,57.40
2022-10-21T06:13:20.295Z,57.40
2022-10-21T06:16:12.662Z,57.70
2022-10-21T06:18:41.612Z,57.70
2022-10-21T06:21:10.960Z,57.60
2022-10-21T06:23:39.479Z,57.50
2022-10-21T06:26:11.804Z,57.50
2022-10-21T06:28:41.895Z,57.40
2022-10-21T06:31:13.647Z,57.10
2022-10-21T06:33:41.981Z,57.30
2022-10-21T06:36:10.320Z,57.30
2022-10-21T06:38:38.623Z,57.30
2022-10-21T06:41:13.030Z,57.30
2022-10-21T06:43:42.320Z,57.30
2022-10-21T06:46:12.483Z,57.20
2022-10-21T06:48:40.839Z,57.20
2022-10-21T06:51:11.147Z,57.10
2022-10-21T06:53:39.761Z,57.10
2022-10-21T06:56:12.485Z,57.60
2022-10-21T06:58:43.400Z,57.10
2022-10-21T07:01:27.388Z,57.00
2022-10-21T07:04:01.613Z,57.10
2022-10-21T07:06:30.054Z,57.20
2022-10-21T07:08:59.201Z,57.20
2022-10-21T07:11:29.452Z,57.20
2022-10-21T07:13:57.794Z,57.30
2022-10-21T07:16:27.385Z,57.30
2022-10-21T07:18:56.143Z,57.20
2022-10-21T07:21:27.051Z,57.10
2022-10-21T07:23:59.201Z,57.10
2022-10-21T07:26:31.136Z,57.10
2022-10-21T07:29:01.060Z,57.20
2022-10-21T07:31:32.209Z,57.20
2022-10-21T07:34:00.965Z,57.20
2022-10-21T07:36:31.235Z,56.90
2022-10-21T07:39:02.660Z,56.90
2022-10-21T07:41:34.722Z,57.00
2022-10-21T07:44:03.453Z,56.90
2022-10-21T07:46:31.679Z,56.60
2022-10-21T07:49:00.025Z,56.80
2022-10-21T07:51:30.245Z,56.90
2022-10-21T07:54:01.260Z,56.70
2022-10-21T07:56:33.075Z,56.70
2022-10-21T07:59:01.712Z,56.50
2022-10-21T08:01:30.538Z,56.50
2022-10-21T08:03:59.662Z,56.70
2022-10-21T08:06:28.974Z,56.60
2022-10-21T08:08:58.322Z,56.50
2022-10-21T08:11:28.571Z,56.00
2022-10-21T08:13:58.830Z,55.80
2022-10-21T08:16:28.129Z,55.70
2022-10-21T08:19:05.925Z,55.70
2022-10-21T08:21:34.339Z,55.40
2022-10-21T08:24:04.366Z,55.70
2022-10-21T08:26:32.694Z,55.50
2022-10-21T08:29:03.991Z,55.20
2022-10-21T08:31:32.609Z,55.40
2022-10-21T08:34:01.079Z,55.40
2022-10-21T08:36:29.296Z,55.10
2022-10-21T08:38:58.795Z,55.60
2022-10-21T08:42:00.128Z,55.00
2022-10-21T08:44:35.358Z,55.00
2022-10-21T08:47:15.196Z,54.90
2022-10-21T08:50:01.302Z,54.70
2022-10-21T08:52:54.793Z,54.60
2022-10-21T08:55:26.876Z,54.60
2022-10-21T08:57:55.841Z,54.10
2022-10-21T09:00:28.475Z,54.40
2022-10-21T09:03:15.547Z,54.40
2022-10-21T09:05:59.359Z,53.90
2022-10-21T09:08:34.185Z,53.40
2022-10-21T09:11:06.146Z,53.20
2022-10-21T09:13:50.471Z,53.00
2022-10-21T09:16:25.015Z,52.90
2022-10-21T09:19:02.444Z,53.30
2022-10-21T09:21:40.524Z,53.40
2022-10-21T09:24:12.662Z,53.70
2022-10-21T09:26:42.652Z,53.40
2022-10-21T09:29:30.511Z,53.50
2022-10-21T09:32:11.838Z,53.20
2022-10-21T09:34:49.005Z,52.80
2022-10-21T09:37:30.417Z,52.50
2022-10-21T09:40:11.756Z,52.10
2022-10-21T09:42:47.559Z,52.30
2022-10-21T09:45:23.772Z,52.20
2022-10-21T09:47:58.903Z,52.20
2022-10-21T09:50:29.105Z,51.30
2022-10-21T09:53:05.738Z,51.50
2022-10-21T09:55:34.582Z,51.40
2022-10-21T09:58:04.311Z,51.50
2022-10-21T10:00:50.067Z,51.50
2022-10-21T10:03:34.394Z,50.70
2022-10-21T10:06:03.773Z,51.00
2022-10-21T10:08:35.805Z,51.10
2022-10-21T10:11:12.351Z,50.60
2022-10-21T10:13:42.873Z,50.60
2022-10-21T10:16:24.017Z,50.20
2022-10-21T10:19:10.977Z,50.20
2022-10-21T10:21:39.294Z,50.60
2022-10-21T10:24:07.574Z,50.80
2022-10-21T10:26:38.419Z,50.90
2022-10-21T10:29:25.091Z,50.80
2022-10-21T10:31:57.522Z,50.90
2022-10-21T10:34:32.763Z,50.40
2022-10-21T10:37:04.316Z,50.20
2022-10-21T10:39:36.078Z,50.60
2022-10-21T10:42:04.817Z,50.70
2022-10-21T10:44:38.471Z,50.60
2022-10-21T10:47:09.310Z,50.70
2022-10-21T10:49:43.848Z,49.50
2022-10-21T10:52:24.187Z,49.90
2022-10-21T10:55:19.422Z,50.60
2022-10-21T10:58:06.228Z,49.90
2022-10-21T11:00:46.275Z,50.10
2022-10-21T11:03:23.896Z,50.20
2022-10-21T11:06:02.532Z,49.80
2022-10-21T11:08:34.541Z,49.90
2022-10-21T11:11:05.341Z,49.50
2022-10-21T11:13:36.916Z,49.80
2022-10-21T11:16:17.995Z,49.90
2022-10-21T11:18:53.697Z,50.00
2022-10-21T11:21:40.262Z,49.90
2022-10-21T11:24:29.570Z,49.60
2022-10-21T11:27:02.278Z,49.90
2022-10-21T11:29:40.831Z,49.40
2022-10-21T11:32:21.744Z,49.20
2022-10-21T11:34:58.471Z,49.40
2022-10-21T11:37:44.249Z,49.40
2022-10-21T11:40:23.714Z,49.60
2022-10-21T11:42:54.074Z,49.50
2022-10-21T11:45:50.596Z,49.40
2022-10-21T11:48:37.804Z,49.40
2022-10-21T11:51:16.518Z,49.20
2022-10-21T11:53:56.625Z,49.10
2022-10-21T11:56:30.965Z,49.10
2022-10-21T11:59:10.260Z,49.20
2022-10-21T12:01:47.283Z,49.10
2022-10-21T12:04:34.443Z,49.40
2022-10-21T12:07:35.520Z,49.40
2022-10-21T12:10:11.802Z,49.50
2022-10-21T12:12:46.297Z,49.40
2022-10-21T12:15:19.890Z,49.30
2022-10-21T12:17:50.550Z,49.40
2022-10-21T12:20:23.934Z,49.30
2022-10-21T12:22:59.542Z,49.20
2022-10-21T12:25:38.085Z,49.30
2022-10-21T12:28:12.534Z,49.20
2022-10-21T12:30:45.841Z,49.20
2022-10-21T12:33:19.129Z,49.30
2022-10-21T12:35:53.276Z,49.60
2022-10-21T12:38:25.083Z,49.80
2022-10-21T12:41:29.180Z,49.70
2022-10-21T12:44:03.963Z,49.60
2022-10-21T12:46:39.884Z,49.70
2022-10-21T12:49:21.603Z,49.70
2022-10-21T12:51:52.846Z,49.60
2022-10-21T12:54:26.647Z,49.70
2022-10-21T12:57:04.891Z,49.40
2022-10-21T12:59:36.198Z,49.40
2022-10-21T13:02:20.202Z,49.20
2022-10-21T13:04:51.401Z,49.00
2022-10-21T13:07:37.442Z,49.00
2022-10-21T13:10:29.449Z,48.90
2022-10-21T13:13:39.182Z,49.00
2022-10-21T13:16:37.043Z,48.80
2022-10-21T13:19:27.273Z,48.40
2022-10-21T13:22:03.537Z,48.70
2022-10-21T13:24:34.726Z,48.50
2022-10-21T13:27:05.258Z,48.50
2022-10-21T13:29:46.186Z,48.60
2022-10-21T13:32:34.343Z,48.50
2022-10-21T13:35:29.539Z,48.50
2022-10-21T13:38:02.209Z,48.30
2022-10-21T13:40:39.606Z,48.60
2022-10-21T13:43:14.770Z,48.70
2022-10-21T13:45:49.431Z,48.80
2022-10-21T13:48:20.984Z,48.90
2022-10-21T13:50:51.388Z,48.90
2022-10-21T13:53:29.893Z,48.90
2022-10-21T13:56:01.458Z,48.60
2022-10-21T13:58:31.552Z,48.70
2022-10-21T14:01:09.064Z,48.80
2022-10-21T14:03:38.959Z,48.90
2022-10-21T14:06:09.657Z,49.00
2022-10-21T14:08:42.391Z,49.10
2022-10-21T14:11:16.636Z,49.30
2022-10-21T14:13:45.244Z,49.30
2022-10-21T14:16:21.639Z,49.40
2022-10-21T14:18:52.177Z,49.40
2022-10-21T14:21:23.408Z,49.50
2022-10-21T14:23:52.074Z,49.60
2022-10-21T14:26:20.857Z,49.70
2022-10-21T14:28:50.330Z,49.80
2022-10-21T14:31:20.382Z,49.80
2022-10-21T14:33:50.552Z,49.80
2022-10-21T14:36:20.907Z,49.70
2022-10-21T14:39:00.476Z,49.80
2022-10-21T14:41:35.566Z,49.80
2022-10-21T14:44:10.351Z,49.80
2022-10-21T14:46:43.964Z,49.90
2022-10-21T14:49:31.964Z,49.90
2022-10-21T14:52:02.842Z,50.00
2022-10-21T14:54:40.219Z,50.10
2022-10-21T14:57:34.196Z,50.20
2022-10-21T15:00:03.812Z,50.30
2022-10-21T15:02:36.921Z,50.30
2022-10-21T15:05:35.175Z,50.40
2022-10-21T15:08:30.672Z,50.70
2022-10-21T15:11:23.734Z,50.80
2022-10-21T15:14:07.021Z,50.90
2022-10-21T15:19:11.179Z,51.00
2022-10-21T15:21:48.368Z,51.10
2022-10-21T15:24:21.609Z,51.30
2022-10-21T15:26:53.024Z,51.50
2022-10-21T15:29:28.046Z,51.60
2022-10-21T15:31:58.861Z,51.90
2022-10-21T15:34:27.455Z,52.10
2022-10-21T15:36:57.219Z,52.20
2022-10-21T15:39:27.627Z,52.40
2022-10-21T15:41:57.943Z,52.60
2022-10-21T15:44:29.427Z,52.80
2022-10-21T15:47:00.867Z,53.00
2022-10-21T15:49:33.629Z,53.20
2022-10-21T15:52:03.587Z,53.40
2022-10-21T15:54:32.099Z,53.60
2022-10-21T15:57:01.903Z,53.70
2022-10-21T15:59:32.530Z,53.90
2022-10-21T16:02:17.070Z,54.10
2022-10-21T16:04:46.338Z,54.20
2022-10-21T16:07:22.560Z,54.40
2022-10-21T16:09:50.906Z,54.70
2022-10-21T16:12:22.439Z,54.80
2022-10-21T16:14:50.733Z,55.00
2022-10-21T16:17:19.404Z,55.00
2022-10-21T16:19:47.638Z,55.10
2022-10-21T16:22:19.693Z,55.20
2022-10-21T16:24:49.373Z,55.30
2022-10-21T16:27:30.912Z,55.40
2022-10-21T16:30:19.162Z,55.60
2022-10-21T16:32:47.816Z,55.70
2022-10-21T16:35:17.423Z,55.80
2022-10-21T16:37:46.053Z,56.00
2022-10-21T16:40:24.292Z,56.70
2022-10-21T16:42:53.271Z,56.30
2022-10-21T16:45:23.516Z,56.30
2022-10-21T16:47:56.662Z,56.50
2022-10-21T16:50:30.808Z,56.60
2022-10-21T16:52:59.120Z,56.80
2022-10-21T16:55:28.982Z,56.80
2022-10-21T16:57:57.278Z,57.00
2022-10-21T17:00:25.556Z,57.10
2022-10-21T17:02:53.914Z,57.20
2022-10-21T17:05:22.339Z,57.30
2022-10-21T17:07:50.610Z,57.30
2022-10-21T17:10:19.005Z,57.40
2022-10-21T17:12:48.693Z,57.60
2022-10-21T17:15:17.561Z,57.60
2022-10-21T17:17:45.810Z,57.80
2022-10-21T17:20:13.997Z,57.90
2022-10-21T17:22:42.228Z,58.00
2022-10-21T17:25:12.853Z,58.10
2022-10-21T17:27:41.486Z,58.20
2022-10-21T17:30:13.354Z,58.30
2022-10-21T17:35:18.418Z,58.60
2022-10-21T17:37:47.495Z,58.60
2022-10-21T17:40:18.051Z,58.70
2022-10-21T17:42:46.409Z,58.90
2022-10-21T17:45:18.143Z,59.00
2022-10-21T17:47:46.776Z,59.10
2022-10-21T17:50:18.527Z,60.30
2022-10-21T17:52:46.769Z,60.20
2022-10-21T17:55:14.974Z,60.00
2022-10-21T17:57:43.247Z,60.00
2022-10-21T18:00:12.571Z,60.00
2022-10-21T18:02:45.502Z,60.10
2022-10-21T18:05:13.794Z,60.10
2022-10-21T18:07:42.236Z,60.20
2022-10-21T18:10:11.550Z,60.20
2022-10-21T18:12:40.044Z,60.40
2022-10-21T18:15:09.172Z,61.40
2022-10-21T18:17:40.060Z,61.30
2022-10-21T18:20:11.306Z,61.20
2022-10-21T18:22:39.857Z,61.20
2022-10-21T18:25:09.134Z,61.30
2022-10-21T18:27:40.387Z,61.30
2022-10-21T18:30:09.779Z,61.40
2022-10-21T18:32:39.103Z,61.50
2022-10-21T18:35:11.766Z,61.60
2022-10-21T18:37:40.106Z,61.80
2022-10-21T18:40:10.190Z,62.00
2022-10-21T18:42:39.676Z,62.10
2022-10-21T18:45:08.650Z,62.00
2022-10-21T18:47:39.488Z,62.30
2022-10-21T18:50:11.020Z,62.50
2022-10-21T18:52:39.440Z,62.60
2022-10-21T18:55:08.215Z,62.70
2022-10-21T18:57:36.542Z,62.90
2022-10-21T19:00:06.669Z,62.70
2022-10-21T19:02:35.328Z,62.90
2022-10-21T19:05:03.561Z,62.90
2022-10-21T19:07:33.240Z,63.00
2022-10-21T19:10:01.482Z,63.10
2022-10-21T19:12:29.729Z,63.10
2022-10-21T19:14:58.147Z,63.10
2022-10-21T19:17:28.688Z,63.30
2022-10-21T19:19:56.956Z,63.70
2022-10-21T19:22:26.187Z,63.70
2022-10-21T19:24:55.960Z,63.70
2022-10-21T19:27:24.450Z,63.70
2022-10-21T19:29:52.763Z,63.70
2022-10-21T19:32:21.023Z,64.50
2022-10-21T19:34:50.854Z,64.40
2022-10-21T19:37:19.070Z,64.30
2022-10-21T19:39:47.338Z,64.30
2022-10-21T19:42:17.045Z,64.30
2022-10-21T19:44:45.289Z,64.40
2022-10-21T19:47:13.484Z,64.30
2022-10-21T19:49:41.847Z,64.40
2022-10-21T19:52:10.119Z,64.40
2022-10-21T19:54:38.355Z,64.60
2022-10-21T19:57:06.627Z,66.00
2022-10-21T19:59:36.268Z,65.70
2022-10-21T20:02:04.560Z,65.50
2022-10-21T20:04:35.325Z,65.50
2022-10-21T20:07:04.379Z,65.40
2022-10-21T20:09:35.010Z,66.20
2022-10-21T20:12:06.277Z,66.10
2022-10-21T20:14:35.934Z,65.90
2022-10-21T20:17:04.323Z,65.80
2022-10-21T20:19:32.584Z,65.80
2022-10-21T20:22:00.866Z,65.80
2022-10-21T20:24:29.100Z,65.80
2022-10-21T20:26:59.839Z,65.70
2022-10-21T20:29:30.433Z,65.80
2022-10-21T20:32:00.337Z,65.80
2022-10-21T20:34:29.598Z,65.80
2022-10-21T20:36:59.909Z,65.80
2022-10-21T20:39:28.236Z,65.80
2022-10-21T20:41:56.581Z,65.90
2022-10-21T20:44:24.789Z,65.90
2022-10-21T20:46:53.074Z,66.00
2022-10-21T20:49:22.712Z,66.00
2022-10-21T20:51:50.984Z,66.10
2022-10-21T20:54:22.766Z,66.10
2022-10-21T20:56:51.037Z,66.20
2022-10-21T20:59:19.263Z,66.20
2022-10-21T21:01:48.713Z,66.30
2022-10-21T21:04:20.811Z,66.30
2022-10-21T21:06:51.163Z,66.30
2022-10-21T21:09:43.753Z,66.30
2022-10-21T21:12:10.037Z,66.40
2022-10-21T21:14:38.306Z,66.40
2022-10-21T21:17:06.897Z,66.50
2022-10-21T21:19:35.169Z,66.50
2022-10-21T21:22:05.095Z,66.60
2022-10-21T21:24:33.707Z,66.60
2022-10-21T21:27:02.087Z,66.70
2022-10-21T21:29:33.107Z,66.70
2022-10-21T21:32:01.385Z,66.70
2022-10-21T21:34:29.621Z,66.90
2022-10-21T21:36:57.897Z,67.00
2022-10-21T21:39:28.852Z,67.10
2022-10-21T21:41:57.305Z,68.60
2022-10-21T21:44:25.546Z,68.30
2022-10-21T21:46:53.750Z,68.20
2022-10-21T21:49:21.969Z,68.00
2022-10-21T21:51:50.270Z,68.10
2022-10-21T21:54:18.542Z,68.70
2022-10-21T21:56:48.214Z,68.50
2022-10-21T21:59:16.553Z,68.30
2022-10-21T22:01:44.875Z,68.10
2022-10-21T22:04:13.094Z,68.00
2022-10-21T22:06:41.361Z,67.90
2022-10-21T22:09:11.765Z,67.60
2022-10-21T22:11:40.564Z,67.40
2022-10-21T22:14:13.031Z,67.30
2022-10-21T22:16:41.429Z,67.30
2022-10-21T22:19:11.938Z,67.10
2022-10-21T22:21:40.221Z,67.10
2022-10-21T22:24:08.480Z,67.00
2022-10-21T22:26:39.794Z,67.00
2022-10-21T22:29:09.485Z,66.90
2022-10-21T22:31:37.712Z,67.00
2022-10-21T22:34:09.245Z,67.70
2022-10-21T22:36:40.086Z,67.50
2022-10-21T22:39:08.520Z,67.30
2022-10-21T22:41:36.875Z,67.40
2022-10-21T22:44:05.606Z,67.50
2022-10-21T22:46:36.400Z,67.70
2022-10-21T22:49:05.420Z,67.90
2022-10-21T22:51:34.129Z,67.80
2022-10-21T22:54:02.483Z,67.80
2022-10-21T22:56:32.751Z,67.70
2022-10-21T22:59:01.034Z,67.80
2022-10-21T23:01:30.758Z,67.90
2022-10-21T23:04:07.585Z,68.20
2022-10-21T23:06:36.815Z,68.30
2022-10-21T23:09:06.653Z,68.40
2022-10-21T23:11:34.907Z,68.60
2022-10-21T23:14:08.035Z,68.60
2022-10-21T23:16:37.753Z,68.70
2022-10-21T23:19:08.331Z,68.70
2022-10-21T23:21:37.408Z,68.70
2022-10-21T23:24:07.018Z,68.80
2022-10-21T23:26:35.713Z,69.30
2022-10-21T23:29:04.022Z,69.30
2022-10-21T23:31:32.283Z,69.10
2022-10-21T23:34:00.552Z,69.20
2022-10-21T23:36:30.353Z,69.30
2022-10-21T23:38:58.619Z,69.30
2022-10-21T23:41:26.928Z,69.40
2022-10-21T23:43:55.180Z,69.40
2022-10-21T23:46:23.589Z,69.50
2022-10-21T23:48:51.865Z,69.50
2022-10-21T23:51:21.331Z,69.60
2022-10-21T23:53:50.977Z,69.70
2022-10-21T23:56:19.203Z,70.00
2022-10-21T23:58:47.525Z,69.70
